createdAt,value
2023-01-09T07:46:59.060Z,99217.59
2023-01-09T07:50:02.353Z,99217.59
2023-01-09T07:53:05.115Z,99226.84
2023-01-09T07:56:08.139Z,99211.84
2023-01-09T07:59:10.729Z,99214.88
2023-01-09T08:02:13.704Z,99210.97
2023-01-09T08:05:16.983Z,99204.03
2023-01-09T08:08:19.474Z,99214.97
2023-01-09T08:11:22.496Z,99207.38
2023-01-09T08:14:24.987Z,99210.66
2023-01-09T08:17:28.225Z,99205.72
2023-01-09T08:20:31.274Z,99201.59
2023-01-09T08:23:34.080Z,99195.81
2023-01-09T08:26:36.522Z,99199.28
2023-01-09T08:29:39.508Z,99202.75
2023-01-09T08:32:42.178Z,99214.53
2023-01-09T08:35:44.994Z,99210.69
2023-01-09T08:38:47.552Z,99204.09
2023-01-09T08:42:09.098Z,99189.56
2023-01-09T08:45:31.002Z,99198.31
2023-01-09T08:48:33.844Z,99212.72
2023-01-09T08:51:37.278Z,99219.28
2023-01-09T08:54:40.572Z,99229.19
2023-01-09T08:57:53.329Z,99225.53
2023-01-09T09:00:56.522Z,99224.22
2023-01-09T09:03:59.154Z,99212.97
2023-01-09T09:07:01.941Z,99214.81
2023-01-09T09:10:04.913Z,99202.09
2023-01-09T09:13:07.734Z,99207.34
2023-01-09T09:16:10.321Z,99205.88
2023-01-09T09:19:13.204Z,99200.97
2023-01-09T09:22:15.721Z,99201.06
2023-01-09T09:25:19.863Z,99178.25
2023-01-09T09:28:22.438Z,99169.94
2023-01-09T09:31:25.413Z,99151.09
2023-01-09T09:34:27.981Z,99149.53
2023-01-09T09:37:30.874Z,99144.38
2023-01-09T09:41:00.848Z,99147.37
2023-01-09T09:44:59.826Z,99151.19
2023-01-09T09:48:14.480Z,99134.59
2023-01-09T09:51:42.559Z,99143.22
2023-01-09T09:54:49.477Z,99135.34
2023-01-09T09:57:53.384Z,99132.09
2023-01-09T10:00:56.251Z,99135.72
2023-01-09T10:04:00.840Z,99130.75
2023-01-09T10:07:09.412Z,99126.59
2023-01-09T10:10:36.242Z,99134.06
2023-01-09T10:13:57.297Z,99141.59
2023-01-09T10:17:31.266Z,99139.59
2023-01-09T10:20:42.655Z,99129.72
2023-01-09T10:24:06.941Z,99120.62
2023-01-09T10:27:29.696Z,99126.56
2023-01-09T10:30:46.365Z,99130.19
2023-01-09T10:34:04.604Z,99125.25
2023-01-09T10:37:34.214Z,99116.66
2023-01-09T10:40:40.673Z,99110.03
2023-01-09T10:43:47.627Z,99108.22
2023-01-09T10:46:54.949Z,99088.72
2023-01-09T10:49:59.009Z,99096.31
2023-01-09T10:53:05.717Z,99094.50
2023-01-09T10:56:18.941Z,99091.50
2023-01-09T10:59:22.792Z,99071.66
2023-01-09T11:02:34.175Z,99077.47
2023-01-09T11:05:36.836Z,99078.63
2023-01-09T11:08:42.214Z,99071.84
2023-01-09T11:11:45.517Z,99063.41
2023-01-09T11:14:48.261Z,99064.53
2023-01-09T11:17:51.656Z,99060.56
2023-01-09T11:20:54.526Z,99064.19
2023-01-09T11:23:57.527Z,99055.59
2023-01-09T11:27:12.615Z,99055.94
2023-01-09T11:30:26.440Z,99039.41
2023-01-09T11:33:31.739Z,99054.63
2023-01-09T11:36:34.534Z,99035.94
2023-01-09T11:39:41.808Z,99029.50
2023-01-09T11:43:06.425Z,99038.44
2023-01-09T11:46:11.580Z,99033.16
2023-01-09T11:49:17.985Z,99018.63
2023-01-09T11:52:22.164Z,99024.38
2023-01-09T11:55:29.361Z,99023.88
2023-01-09T11:58:35.262Z,99024.72
2023-01-09T12:01:46.471Z,99023.91
2023-01-09T12:05:09.480Z,99017.09
2023-01-09T12:08:30.129Z,99012.00
2023-01-09T12:11:36.058Z,99009.34
2023-01-09T12:14:51.666Z,99015.47
2023-01-09T12:17:57.376Z,99019.13
2023-01-09T12:21:06.669Z,99006.03
2023-01-09T12:24:39.025Z,99007.19
2023-01-09T12:27:52.174Z,98997.13
2023-01-09T12:31:23.021Z,99001.75
2023-01-09T12:35:04.033Z,98999.78
2023-01-09T12:38:28.276Z,99000.75
2023-01-09T12:41:44.805Z,98990.69
2023-01-09T12:45:08.485Z,98986.38
2023-01-09T12:48:38.718Z,98980.31
2023-01-09T12:52:07.985Z,98977.16
2023-01-09T12:55:25.774Z,98976.31
2023-01-09T12:58:39.778Z,98978.28
2023-01-09T13:01:46.364Z,98967.25
2023-01-09T13:05:01.522Z,98961.12
2023-01-09T13:08:25.416Z,98960.97
2023-01-09T13:11:40.831Z,98954.19
2023-01-09T13:15:00.131Z,98949.72
2023-01-09T13:18:13.027Z,98955.84
2023-01-09T13:21:16.078Z,98943.25
2023-01-09T13:24:30.343Z,98948.22
2023-01-09T13:27:39.046Z,98953.84
2023-01-09T13:30:58.817Z,98946.22
2023-01-09T13:34:04.534Z,98947.22
2023-01-09T13:37:21.541Z,98955.66
2023-01-09T13:40:26.696Z,98947.88
2023-01-09T13:43:56.270Z,98952.19
2023-01-09T13:47:00.822Z,98945.75
2023-01-09T13:50:09.779Z,98951.03
2023-01-09T13:53:18.739Z,98951.88
2023-01-09T13:56:23.785Z,98957.97
2023-01-09T13:59:28.494Z,98951.38
2023-01-09T14:02:34.363Z,98956.31
2023-01-09T14:05:37.229Z,98957.16
2023-01-09T14:08:41.984Z,98968.91
2023-01-09T14:11:45.843Z,98975.19
2023-01-09T14:14:49.423Z,98966.75
2023-01-09T14:18:03.196Z,98968.06
2023-01-09T14:24:25.196Z,98971.37
2023-01-09T14:27:55.855Z,98969.22
2023-01-09T14:30:58.532Z,98975.66
2023-01-09T14:34:35.639Z,98965.25
2023-01-09T14:37:40.942Z,98966.41
2023-01-09T14:40:52.309Z,98962.16
2023-01-09T14:44:01.212Z,98962.66
2023-01-09T14:47:24.508Z,98964.47
2023-01-09T14:50:37.799Z,98960.50
2023-01-09T14:53:40.629Z,98951.22
2023-01-09T14:56:47.056Z,98958.50
2023-01-09T15:00:01.327Z,98963.47
2023-01-09T15:03:04.525Z,98964.63
2023-01-09T15:06:12.573Z,98958.84
2023-01-09T15:09:23.271Z,98951.56
2023-01-09T15:12:26.188Z,98957.00
2023-01-09T15:15:29.035Z,98950.25
2023-01-09T15:18:40.349Z,98947.59
2023-01-09T15:21:56.954Z,98951.84
2023-01-09T15:25:00.199Z,98953.38
2023-01-09T15:28:22.084Z,98959.78
2023-01-09T15:31:24.842Z,98946.53
2023-01-09T15:34:27.793Z,98955.66
2023-01-09T15:37:39.552Z,98953.16
2023-01-09T15:40:42.370Z,98957.63
2023-01-09T15:43:44.845Z,98960.28
2023-01-09T15:46:50.093Z,98954.16
2023-01-09T15:49:53.146Z,98955.50
2023-01-09T15:52:56.611Z,98957.16
2023-01-09T15:56:23.939Z,98953.84
2023-01-09T15:59:28.467Z,98950.19
2023-01-09T16:02:49.636Z,98942.09
2023-01-09T16:06:05.582Z,98942.09
2023-01-09T16:09:16.210Z,98930.38
2023-01-09T16:12:24.591Z,98920.94
2023-01-09T16:15:29.212Z,98922.09
2023-01-09T16:18:37.731Z,98924.41
2023-01-09T16:21:40.792Z,98925.41
2023-01-09T16:24:43.585Z,98918.94
2023-01-09T16:28:08.607Z,98922.28
2023-01-09T16:31:23.863Z,98929.53
2023-01-09T16:34:26.505Z,98920.13
2023-01-09T16:37:29.482Z,98917.97
2023-01-09T16:40:36.025Z,98927.22
2023-01-09T16:43:38.915Z,98920.94
2023-01-09T16:46:43.761Z,98908.03
2023-01-09T16:49:46.560Z,98901.56
2023-01-09T16:52:49.016Z,98904.56
2023-01-09T16:55:53.261Z,98913.47
2023-01-09T16:58:56.090Z,98901.91
2023-01-09T17:01:59.132Z,98901.59
2023-01-09T17:05:03.045Z,98897.59
2023-01-09T17:08:23.069Z,98904.25
2023-01-09T17:11:31.483Z,98908.38
2023-01-09T17:14:34.410Z,98903.09
2023-01-09T17:17:36.890Z,98893.13
2023-01-09T17:20:41.356Z,98883.06
2023-01-09T17:23:44.326Z,98888.69
2023-01-09T17:27:08.385Z,98882.75
2023-01-09T17:30:18.994Z,98885.22
2023-01-09T17:33:22.156Z,98886.84
2023-01-09T17:36:28.240Z,98894.63
2023-01-09T17:39:31.020Z,98897.78
2023-01-09T17:42:33.572Z,98894.97
2023-01-09T17:45:43.352Z,98899.09
2023-01-09T17:48:46.381Z,98890.84
2023-01-09T17:51:49.996Z,98886.38
2023-01-09T17:54:52.516Z,98886.69
2023-01-09T17:57:55.308Z,98874.13
2023-01-09T18:00:58.922Z,98869.84
2023-01-09T18:04:01.796Z,98871.16
2023-01-09T18:07:04.400Z,98860.25
2023-01-09T18:10:07.670Z,98856.63
2023-01-09T18:13:11.041Z,98864.72
2023-01-09T18:16:16.827Z,98855.28
2023-01-09T18:19:19.510Z,98864.87
2023-01-09T18:22:22.512Z,98853.97
2023-01-09T18:25:25.109Z,98852.66
2023-01-09T18:28:28.112Z,98849.03
2023-01-09T18:31:31.306Z,98844.69
2023-01-09T18:34:34.603Z,98853.00
2023-01-09T18:37:37.450Z,98856.31
2023-01-09T18:40:41.687Z,98855.63
2023-01-09T18:43:44.345Z,98852.97
2023-01-09T18:46:47.135Z,98839.09
2023-01-09T18:49:50.148Z,98832.00
2023-01-09T18:52:53.919Z,98826.38
2023-01-09T18:55:56.698Z,98820.59
2023-01-09T18:58:59.681Z,98808.69
2023-01-09T19:02:02.445Z,98802.09
2023-01-09T19:05:05.646Z,98797.16
2023-01-09T19:08:08.242Z,98804.75
2023-01-09T19:11:11.370Z,98814.97
2023-01-09T19:14:14.265Z,98812.00
2023-01-09T19:17:17.287Z,98809.03
2023-01-09T19:20:20.177Z,98813.00
2023-01-09T19:23:26.441Z,98821.75
2023-01-09T19:26:30.999Z,98813.00
2023-01-09T19:29:36.458Z,98811.03
2023-01-09T19:32:40.019Z,98815.31
2023-01-09T19:35:48.880Z,98809.50
2023-01-09T19:39:00.056Z,98809.50
2023-01-09T19:42:03.479Z,98815.16
2023-01-09T19:45:06.722Z,98816.28
2023-01-09T19:48:09.551Z,98818.13
2023-01-09T19:51:12.945Z,98812.16
2023-01-09T19:54:16.113Z,98813.00
2023-01-09T19:57:18.893Z,98802.94
2023-01-09T20:00:21.919Z,98798.63
2023-01-09T20:03:27.742Z,98797.66
2023-01-09T20:06:31.285Z,98793.84
2023-01-09T20:09:35.014Z,98789.22
2023-01-09T20:12:37.643Z,98787.72
2023-01-09T20:15:40.639Z,98782.59
2023-01-09T20:18:43.432Z,98782.91
2023-01-09T20:21:47.575Z,98773.31
2023-01-09T20:24:50.116Z,98779.28
2023-01-09T20:27:52.922Z,98778.81
2023-01-09T20:30:55.404Z,98774.69
2023-01-09T20:34:02.008Z,98769.72
2023-01-09T20:37:04.866Z,98765.75
2023-01-09T20:40:10.189Z,98762.12
2023-01-09T20:43:12.964Z,98760.47
2023-01-09T20:46:15.967Z,98758.63
2023-01-09T20:49:18.619Z,98761.78
2023-01-09T20:52:22.591Z,98752.19
2023-01-09T20:55:25.059Z,98760.28
2023-01-09T20:58:28.745Z,98751.53
2023-01-09T21:01:31.430Z,98744.56
2023-01-09T21:04:34.345Z,98750.22
2023-01-09T21:07:36.865Z,98757.63
2023-01-09T21:10:39.622Z,98742.94
2023-01-09T21:13:42.391Z,98746.56
2023-01-09T21:16:53.777Z,98747.56
2023-01-09T21:19:57.303Z,98744.25
2023-01-09T21:23:00.399Z,98742.13
2023-01-09T21:26:09.771Z,98741.13
2023-01-09T21:29:12.854Z,98743.91
2023-01-09T21:32:15.418Z,98745.59
2023-01-09T21:35:18.279Z,98744.41
2023-01-09T21:38:21.457Z,98744.94
2023-01-09T21:41:42.879Z,98747.25
2023-01-09T21:45:03.973Z,98739.97
2023-01-09T21:48:07.069Z,98741.97
2023-01-09T21:51:09.526Z,98743.91
2023-01-09T21:54:12.442Z,98746.91
2023-01-09T21:57:14.979Z,98735.69
2023-01-09T22:00:18.632Z,98744.94
2023-01-09T22:03:22.103Z,98733.53
2023-01-09T22:06:24.869Z,98736.19
2023-01-09T22:09:27.789Z,98745.25
2023-01-09T22:12:30.315Z,98747.22
2023-01-09T22:15:33.031Z,98751.87
2023-01-09T22:18:36.086Z,98751.72
2023-01-09T22:21:39.159Z,98756.50
2023-01-09T22:24:41.686Z,98752.19
2023-01-09T22:27:44.526Z,98742.44
2023-01-09T22:30:47.170Z,98749.38
2023-01-09T22:33:53.988Z,98752.50
2023-01-09T22:36:56.555Z,98750.22
2023-01-09T22:39:59.421Z,98746.56
2023-01-09T22:43:01.978Z,98753.69
2023-01-09T22:46:06.786Z,98745.75
2023-01-09T22:49:12.174Z,98737.16
2023-01-09T22:52:15.119Z,98739.62
2023-01-09T22:55:18.126Z,98728.75
2023-01-09T22:58:20.951Z,98739.31
2023-01-09T23:01:23.395Z,98737.97
2023-01-09T23:04:26.225Z,98734.03
2023-01-09T23:07:28.777Z,98735.53
2023-01-09T23:10:31.669Z,98731.25
2023-01-09T23:13:34.187Z,98727.28
2023-01-09T23:16:37.074Z,98724.12
2023-01-09T23:19:40.581Z,98723.81
2023-01-09T23:22:43.405Z,98718.84
2023-01-09T23:25:50.662Z,98719.50
2023-01-09T23:28:53.555Z,98713.87
2023-01-09T23:31:56.410Z,98718.69
2023-01-09T23:34:59.310Z,98715.88
2023-01-09T23:38:01.941Z,98715.88
2023-01-09T23:41:05.000Z,98716.72
2023-01-09T23:44:07.561Z,98706.13
2023-01-09T23:47:10.383Z,98713.72
2023-01-09T23:50:13.025Z,98716.38
2023-01-09T23:53:16.431Z,98705.63
2023-01-09T23:56:18.946Z,98703.66
2023-01-09T23:59:21.827Z,98708.94
